sensor_id;sensor_type;location;lat;lon;timestamp;pressure;altitude;pressure_sealevel;temperature;humidity
12358;BME280;6243;51.244;6.774;2023-12-28T00:00:26;115150.97;;;-141.28;46.87
12358;BME280;6243;51.244;6.774;2023-12-28T00:02:51;115150.97;;;-141.28;46.72
12358;BME280;6243;51.244;6.774;2023-12-28T00:05:17;115150.97;;;-141.28;46.91
12358;BME280;6243;51.244;6.774;2023-12-28T00:07:42;115150.97;;;-141.28;46.82
12358;BME280;6243;51.244;6.774;2023-12-28T00:10:08;115150.97;;;-141.28;46.79
12358;BME280;6243;51.244;6.774;2023-12-28T00:12:34;115150.97;;;-141.28;46.57
12358;BME280;6243;51.244;6.774;2023-12-28T00:14:59;115150.97;;;-141.28;46.93
12358;BME280;6243;51.244;6.774;2023-12-28T00:17:26;115150.97;;;-141.28;46.51
12358;BME280;6243;51.244;6.774;2023-12-28T00:19:52;115150.97;;;-141.28;46.04
12358;BME280;6243;51.244;6.774;2023-12-28T00:22:17;115150.97;;;-141.28;46.01
12358;BME280;6243;51.244;6.774;2023-12-28T00:24:43;115150.97;;;-141.28;46.70
12358;BME280;6243;51.244;6.774;2023-12-28T00:27:08;115150.97;;;-141.28;46.99
12358;BME280;6243;51.244;6.774;2023-12-28T00:29:34;115150.97;;;-141.28;47.99
12358;BME280;6243;51.244;6.774;2023-12-28T00:31:59;115150.97;;;-141.28;47.79
12358;BME280;6243;51.244;6.774;2023-12-28T00:34:26;115150.97;;;-141.28;47.10
12358;BME280;6243;51.244;6.774;2023-12-28T00:36:52;115150.97;;;-141.28;47.12
12358;BME280;6243;51.244;6.774;2023-12-28T00:39:17;115150.97;;;-141.28;48.30
12358;BME280;6243;51.244;6.774;2023-12-28T00:41:43;115150.97;;;-141.28;47.82
12358;BME280;6243;51.244;6.774;2023-12-28T00:44:08;115150.97;;;-141.28;48.02
12358;BME280;6243;51.244;6.774;2023-12-28T00:46:34;115150.97;;;-141.28;48.61
12358;BME280;6243;51.244;6.774;2023-12-28T00:48:59;115150.97;;;-141.28;48.70
12358;BME280;6243;51.244;6.774;2023-12-28T00:51:26;115150.97;;;-141.28;48.15
12358;BME280;6243;51.244;6.774;2023-12-28T00:53:52;115150.97;;;-141.28;48.35
12358;BME280;6243;51.244;6.774;2023-12-28T00:56:17;115150.97;;;-141.28;48.14
12358;BME280;6243;51.244;6.774;2023-12-28T00:58:43;115150.97;;;-141.28;48.16
12358;BME280;6243;51.244;6.774;2023-12-28T01:01:08;115150.97;;;-141.28;48.43
12358;BME280;6243;51.244;6.774;2023-12-28T01:03:34;115150.97;;;-141.28;48.05
12358;BME280;6243;51.244;6.774;2023-12-28T01:05:59;115150.97;;;-141.28;48.21
12358;BME280;6243;51.244;6.774;2023-12-28T01:08:26;115150.97;;;-141.28;48.36
12358;BME280;6243;51.244;6.774;2023-12-28T01:10:52;115150.97;;;-141.28;48.73
12358;BME280;6243;51.244;6.774;2023-12-28T01:13:17;115150.97;;;-141.28;48.67
12358;BME280;6243;51.244;6.774;2023-12-28T01:15:43;115150.97;;;-141.28;48.53
12358;BME280;6243;51.244;6.774;2023-12-28T01:18:08;115150.97;;;-141.28;48.20
12358;BME280;6243;51.244;6.774;2023-12-28T01:20:34;115150.97;;;-141.28;48.54
12358;BME280;6243;51.244;6.774;2023-12-28T01:22:59;115150.97;;;-141.28;48.46
12358;BME280;6243;51.244;6.774;2023-12-28T01:25:26;115150.97;;;-141.28;48.29
12358;BME280;6243;51.244;6.774;2023-12-28T01:27:52;115150.97;;;-141.28;47.88
12358;BME280;6243;51.244;6.774;2023-12-28T01:30:17;115150.97;;;-141.28;47.92
12358;BME280;6243;51.244;6.774;2023-12-28T01:32:43;115150.97;;;-141.28;47.52
12358;BME280;6243;51.244;6.774;2023-12-28T01:35:08;115150.97;;;-141.28;48.14
12358;BME280;6243;51.244;6.774;2023-12-28T01:37:34;115150.97;;;-141.28;48.09
12358;BME280;6243;51.244;6.774;2023-12-28T01:40:00;115150.97;;;-141.28;48.22
12358;BME280;6243;51.244;6.774;2023-12-28T01:42:27;115150.97;;;-141.28;48.13
12358;BME280;6243;51.244;6.774;2023-12-28T01:44:52;115150.97;;;-141.28;48.50
12358;BME280;6243;51.244;6.774;2023-12-28T01:47:18;115150.97;;;-141.28;47.92
12358;BME280;6243;51.244;6.774;2023-12-28T01:49:44;115150.97;;;-141.28;48.53
12358;BME280;6243;51.244;6.774;2023-12-28T01:52:09;115150.97;;;-141.28;48.24
12358;BME280;6243;51.244;6.774;2023-12-28T01:54:36;115150.97;;;-141.28;47.67
12358;BME280;6243;51.244;6.774;2023-12-28T01:57:03;115150.97;;;-141.28;47.64
12358;BME280;6243;51.244;6.774;2023-12-28T01:59:30;115150.97;;;-141.28;47.52
12358;BME280;6243;51.244;6.774;2023-12-28T02:01:56;115150.97;;;-141.28;48.17
12358;BME280;6243;51.244;6.774;2023-12-28T02:04:22;115150.97;;;-141.28;48.25
12358;BME280;6243;51.244;6.774;2023-12-28T02:06:47;115150.97;;;-141.28;47.74
12358;BME280;6243;51.244;6.774;2023-12-28T02:09:13;115150.97;;;-141.28;47.95
12358;BME280;6243;51.244;6.774;2023-12-28T02:11:38;115150.97;;;-141.28;47.97
12358;BME280;6243;51.244;6.774;2023-12-28T02:14:04;115150.97;;;-141.28;48.33
12358;BME280;6243;51.244;6.774;2023-12-28T02:16:33;115150.97;;;-141.28;47.64
12358;BME280;6243;51.244;6.774;2023-12-28T02:19:07;115150.97;;;-141.28;48.02
12358;BME280;6243;51.244;6.774;2023-12-28T02:21:39;115150.97;;;-141.28;47.89
12358;BME280;6243;51.244;6.774;2023-12-28T02:24:05;115150.97;;;-141.28;48.30
12358;BME280;6243;51.244;6.774;2023-12-28T02:26:32;115150.97;;;-141.28;48.14
12358;BME280;6243;51.244;6.774;2023-12-28T02:28:57;115150.97;;;-141.28;48.07
12358;BME280;6243;51.244;6.774;2023-12-28T02:31:27;115150.97;;;-141.28;47.83
12358;BME280;6243;51.244;6.774;2023-12-28T02:33:57;115150.97;;;-141.28;48.21
12358;BME280;6243;51.244;6.774;2023-12-28T02:36:26;115150.97;;;-141.28;47.98
12358;BME280;6243;51.244;6.774;2023-12-28T02:38:53;115150.97;;;-141.28;47.85
12358;BME280;6243;51.244;6.774;2023-12-28T02:41:22;115150.97;;;-141.28;48.07
12358;BME280;6243;51.244;6.774;2023-12-28T02:43:49;115150.97;;;-141.28;48.07
12358;BME280;6243;51.244;6.774;2023-12-28T02:46:15;115150.97;;;-141.28;48.01
12358;BME280;6243;51.244;6.774;2023-12-28T02:48:40;115150.97;;;-141.28;47.46
12358;BME280;6243;51.244;6.774;2023-12-28T02:51:06;115150.97;;;-141.28;47.77
12358;BME280;6243;51.244;6.774;2023-12-28T02:53:31;115150.97;;;-141.28;47.97
12358;BME280;6243;51.244;6.774;2023-12-28T02:55:57;115150.97;;;-141.28;47.72
12358;BME280;6243;51.244;6.774;2023-12-28T02:58:22;115150.97;;;-141.28;48.60
12358;BME280;6243;51.244;6.774;2023-12-28T03:00:49;115150.97;;;-141.28;48.06
12358;BME280;6243;51.244;6.774;2023-12-28T03:03:15;115150.97;;;-141.28;47.97
12358;BME280;6243;51.244;6.774;2023-12-28T03:05:40;115150.97;;;-141.28;48.40
12358;BME280;6243;51.244;6.774;2023-12-28T03:08:06;115150.97;;;-141.28;47.91
12358;BME280;6243;51.244;6.774;2023-12-28T03:10:31;115150.97;;;-141.28;47.75
12358;BME280;6243;51.244;6.774;2023-12-28T03:12:57;115150.97;;;-141.28;47.06
12358;BME280;6243;51.244;6.774;2023-12-28T03:15:32;115150.97;;;-141.28;47.34
12358;BME280;6243;51.244;6.774;2023-12-28T03:17:59;115150.97;;;-141.28;47.75
12358;BME280;6243;51.244;6.774;2023-12-28T03:20:25;115150.97;;;-141.28;47.94
12358;BME280;6243;51.244;6.774;2023-12-28T03:22:50;115150.97;;;-141.28;48.07
12358;BME280;6243;51.244;6.774;2023-12-28T03:25:16;115150.97;;;-141.28;48.60
12358;BME280;6243;51.244;6.774;2023-12-28T03:27:41;115150.97;;;-141.28;48.25
12358;BME280;6243;51.244;6.774;2023-12-28T03:30:08;115150.97;;;-141.28;49.00
12358;BME280;6243;51.244;6.774;2023-12-28T03:32:34;115150.97;;;-141.28;47.87
12358;BME280;6243;51.244;6.774;2023-12-28T03:35:01;115150.97;;;-141.28;47.71
12358;BME280;6243;51.244;6.774;2023-12-28T03:37:26;115150.97;;;-141.28;47.27
12358;BME280;6243;51.244;6.774;2023-12-28T03:39:52;115150.97;;;-141.28;48.02
12358;BME280;6243;51.244;6.774;2023-12-28T03:42:17;115150.97;;;-141.28;47.36
12358;BME280;6243;51.244;6.774;2023-12-28T03:44:43;115150.97;;;-141.28;47.84
12358;BME280;6243;51.244;6.774;2023-12-28T03:47:08;115150.97;;;-141.28;48.14
12358;BME280;6243;51.244;6.774;2023-12-28T03:49:34;115150.97;;;-141.28;47.77
12358;BME280;6243;51.244;6.774;2023-12-28T03:52:01;115150.97;;;-141.28;48.10
12358;BME280;6243;51.244;6.774;2023-12-28T03:54:26;115150.97;;;-141.28;48.47
12358;BME280;6243;51.244;6.774;2023-12-28T03:56:51;115150.97;;;-141.28;47.60
12358;BME280;6243;51.244;6.774;2023-12-28T03:59:17;115150.97;;;-141.28;47.60
12358;BME280;6243;51.244;6.774;2023-12-28T04:01:43;115150.97;;;-141.28;48.15
12358;BME280;6243;51.244;6.774;2023-12-28T04:04:08;115150.97;;;-141.28;48.55
12358;BME280;6243;51.244;6.774;2023-12-28T04:06:34;115150.97;;;-141.28;47.85
12358;BME280;6243;51.244;6.774;2023-12-28T04:09:00;115150.97;;;-141.28;47.48
12358;BME280;6243;51.244;6.774;2023-12-28T04:11:26;115150.97;;;-141.28;47.34
12358;BME280;6243;51.244;6.774;2023-12-28T04:13:51;115150.97;;;-141.28;48.39
12358;BME280;6243;51.244;6.774;2023-12-28T04:16:17;115150.97;;;-141.28;48.03
12358;BME280;6243;51.244;6.774;2023-12-28T04:18:43;115150.97;;;-141.28;47.30
12358;BME280;6243;51.244;6.774;2023-12-28T04:21:08;115150.97;;;-141.28;47.66
12358;BME280;6243;51.244;6.774;2023-12-28T04:23:34;115150.97;;;-141.28;47.90
12358;BME280;6243;51.244;6.774;2023-12-28T04:26:01;115150.97;;;-141.28;46.94
12358;BME280;6243;51.244;6.774;2023-12-28T04:28:26;115150.97;;;-141.28;47.29
12358;BME280;6243;51.244;6.774;2023-12-28T04:30:52;115150.97;;;-141.28;48.04
12358;BME280;6243;51.244;6.774;2023-12-28T04:33:17;115150.97;;;-141.28;47.38
12358;BME280;6243;51.244;6.774;2023-12-28T04:35:43;115150.97;;;-141.28;47.35
12358;BME280;6243;51.244;6.774;2023-12-28T04:38:08;115150.97;;;-141.28;47.30
12358;BME280;6243;51.244;6.774;2023-12-28T04:40:34;115150.97;;;-141.28;47.49
12358;BME280;6243;51.244;6.774;2023-12-28T04:43:01;115150.97;;;-141.28;47.64
12358;BME280;6243;51.244;6.774;2023-12-28T04:45:26;115150.97;;;-141.28;47.23
12358;BME280;6243;51.244;6.774;2023-12-28T04:47:52;115150.97;;;-141.28;47.18
12358;BME280;6243;51.244;6.774;2023-12-28T04:50:17;115150.97;;;-141.28;46.94
12358;BME280;6243;51.244;6.774;2023-12-28T04:52:43;115150.97;;;-141.28;47.02
12358;BME280;6243;51.244;6.774;2023-12-28T04:55:08;115150.97;;;-141.28;46.91
12358;BME280;6243;51.244;6.774;2023-12-28T04:57:34;115150.97;;;-141.28;47.35
12358;BME280;6243;51.244;6.774;2023-12-28T05:00:01;115150.97;;;-141.28;47.54
12358;BME280;6243;51.244;6.774;2023-12-28T05:02:26;115150.97;;;-141.28;47.57
12358;BME280;6243;51.244;6.774;2023-12-28T05:04:52;115150.97;;;-141.28;47.63
12358;BME280;6243;51.244;6.774;2023-12-28T05:07:17;115150.97;;;-141.28;47.27
12358;BME280;6243;51.244;6.774;2023-12-28T05:09:43;115150.97;;;-141.28;47.44
12358;BME280;6243;51.244;6.774;2023-12-28T05:12:08;115150.97;;;-141.28;46.85
12358;BME280;6243;51.244;6.774;2023-12-28T05:14:34;115150.97;;;-141.28;47.01
12358;BME280;6243;51.244;6.774;2023-12-28T05:17:00;115150.97;;;-141.28;47.57
12358;BME280;6243;51.244;6.774;2023-12-28T05:19:26;115150.97;;;-141.28;46.71
12358;BME280;6243;51.244;6.774;2023-12-28T05:21:51;115150.97;;;-141.28;47.27
12358;BME280;6243;51.244;6.774;2023-12-28T05:24:17;115150.97;;;-141.28;46.89
12358;BME280;6243;51.244;6.774;2023-12-28T05:26:42;115150.97;;;-141.28;47.66
12358;BME280;6243;51.244;6.774;2023-12-28T05:29:08;115150.97;;;-141.28;46.76
12358;BME280;6243;51.244;6.774;2023-12-28T05:31:33;115150.97;;;-141.28;46.90
12358;BME280;6243;51.244;6.774;2023-12-28T05:34:00;115150.97;;;-141.28;46.98
12358;BME280;6243;51.244;6.774;2023-12-28T05:36:26;115150.97;;;-141.28;46.92
12358;BME280;6243;51.244;6.774;2023-12-28T05:38:51;115150.97;;;-141.28;47.11
12358;BME280;6243;51.244;6.774;2023-12-28T05:41:17;115150.97;;;-141.28;46.97
12358;BME280;6243;51.244;6.774;2023-12-28T05:43:42;115150.97;;;-141.28;47.02
12358;BME280;6243;51.244;6.774;2023-12-28T05:46:08;115150.97;;;-141.28;47.40
12358;BME280;6243;51.244;6.774;2023-12-28T05:48:33;115150.97;;;-141.28;47.10
12358;BME280;6243;51.244;6.774;2023-12-28T05:51:00;115150.97;;;-141.28;47.02
12358;BME280;6243;51.244;6.774;2023-12-28T05:53:26;115150.97;;;-141.28;46.57
12358;BME280;6243;51.244;6.774;2023-12-28T05:55:52;115150.97;;;-141.28;46.54
12358;BME280;6243;51.244;6.774;2023-12-28T05:58:17;115150.97;;;-141.28;46.64
12358;BME280;6243;51.244;6.774;2023-12-28T06:00:43;115150.97;;;-141.28;46.50
12358;BME280;6243;51.244;6.774;2023-12-28T06:03:08;115150.97;;;-141.28;46.12
12358;BME280;6243;51.244;6.774;2023-12-28T06:05:34;115150.97;;;-141.28;46.74
12358;BME280;6243;51.244;6.774;2023-12-28T06:08:01;115150.97;;;-141.28;46.43
12358;BME280;6243;51.244;6.774;2023-12-28T06:10:26;115150.97;;;-141.28;46.77
12358;BME280;6243;51.244;6.774;2023-12-28T06:12:52;115150.97;;;-141.28;47.22
12358;BME280;6243;51.244;6.774;2023-12-28T06:15:17;115150.97;;;-141.28;46.39
12358;BME280;6243;51.244;6.774;2023-12-28T06:17:43;115150.97;;;-141.28;46.85
12358;BME280;6243;51.244;6.774;2023-12-28T06:20:09;115150.97;;;-141.28;46.41
12358;BME280;6243;51.244;6.774;2023-12-28T06:22:36;115150.97;;;-141.28;46.15
12358;BME280;6243;51.244;6.774;2023-12-28T06:25:04;115150.97;;;-141.28;46.12
12358;BME280;6243;51.244;6.774;2023-12-28T06:27:29;115150.97;;;-141.28;46.49
12358;BME280;6243;51.244;6.774;2023-12-28T06:29:55;115150.97;;;-141.28;46.85
12358;BME280;6243;51.244;6.774;2023-12-28T06:32:20;115150.97;;;-141.28;46.49
12358;BME280;6243;51.244;6.774;2023-12-28T06:34:46;115150.97;;;-141.28;46.20
12358;BME280;6243;51.244;6.774;2023-12-28T06:37:12;115150.97;;;-141.28;46.03
12358;BME280;6243;51.244;6.774;2023-12-28T06:39:38;115150.97;;;-141.28;46.53
12358;BME280;6243;51.244;6.774;2023-12-28T06:42:05;115150.97;;;-141.28;46.30
12358;BME280;6243;51.244;6.774;2023-12-28T06:44:31;115150.97;;;-141.28;45.78
12358;BME280;6243;51.244;6.774;2023-12-28T06:46:57;115150.97;;;-141.28;46.37
12358;BME280;6243;51.244;6.774;2023-12-28T06:49:22;115150.97;;;-141.28;46.67
12358;BME280;6243;51.244;6.774;2023-12-28T06:51:48;115150.97;;;-141.28;46.53
12358;BME280;6243;51.244;6.774;2023-12-28T06:54:13;115150.97;;;-141.28;45.84
12358;BME280;6243;51.244;6.774;2023-12-28T06:56:39;115150.97;;;-141.28;46.36
12358;BME280;6243;51.244;6.774;2023-12-28T06:59:06;115150.97;;;-141.28;46.44
12358;BME280;6243;51.244;6.774;2023-12-28T07:01:31;115150.97;;;-141.28;46.62
12358;BME280;6243;51.244;6.774;2023-12-28T07:03:57;115150.97;;;-141.28;46.12
12358;BME280;6243;51.244;6.774;2023-12-28T07:06:22;115150.97;;;-141.28;45.80
12358;BME280;6243;51.244;6.774;2023-12-28T07:08:48;115150.97;;;-141.28;46.09
12358;BME280;6243;51.244;6.774;2023-12-28T07:11:13;115150.97;;;-141.28;46.20
12358;BME280;6243;51.244;6.774;2023-12-28T07:13:39;115150.97;;;-141.28;45.60
12358;BME280;6243;51.244;6.774;2023-12-28T07:16:06;115150.97;;;-141.28;46.18
12358;BME280;6243;51.244;6.774;2023-12-28T07:18:31;115150.97;;;-141.28;46.39
12358;BME280;6243;51.244;6.774;2023-12-28T07:20:57;115150.97;;;-141.28;46.42
12358;BME280;6243;51.244;6.774;2023-12-28T07:23:22;115150.97;;;-141.28;46.42
12358;BME280;6243;51.244;6.774;2023-12-28T07:25:48;115150.97;;;-141.28;46.36
12358;BME280;6243;51.244;6.774;2023-12-28T07:28:13;115150.97;;;-141.28;46.36
12358;BME280;6243;51.244;6.774;2023-12-28T07:30:39;115150.97;;;-141.28;46.26
12358;BME280;6243;51.244;6.774;2023-12-28T07:33:06;115150.97;;;-141.28;45.82
12358;BME280;6243;51.244;6.774;2023-12-28T07:35:31;115150.97;;;-141.28;45.68
12358;BME280;6243;51.244;6.774;2023-12-28T07:37:57;115150.97;;;-141.28;45.92
12358;BME280;6243;51.244;6.774;2023-12-28T07:40:22;115150.97;;;-141.28;45.81
12358;BME280;6243;51.244;6.774;2023-12-28T07:42:48;115150.97;;;-141.28;46.26
12358;BME280;6243;51.244;6.774;2023-12-28T07:45:14;115150.97;;;-141.28;45.76
12358;BME280;6243;51.244;6.774;2023-12-28T07:47:39;115150.97;;;-141.28;46.48
12358;BME280;6243;51.244;6.774;2023-12-28T07:50:07;115150.97;;;-141.28;46.40
12358;BME280;6243;51.244;6.774;2023-12-28T07:52:33;115150.97;;;-141.28;46.18
12358;BME280;6243;51.244;6.774;2023-12-28T07:54:58;115150.97;;;-141.28;46.29
12358;BME280;6243;51.244;6.774;2023-12-28T07:57:24;115150.97;;;-141.28;45.36
12358;BME280;6243;51.244;6.774;2023-12-28T07:59:49;115150.97;;;-141.28;45.06
12358;BME280;6243;51.244;6.774;2023-12-28T08:02:15;115150.97;;;-141.28;45.60
12358;BME280;6243;51.244;6.774;2023-12-28T08:04:40;115150.97;;;-141.28;45.74
12358;BME280;6243;51.244;6.774;2023-12-28T08:07:07;115150.97;;;-141.28;45.68
12358;BME280;6243;51.244;6.774;2023-12-28T08:09:33;115150.97;;;-141.28;45.76
12358;BME280;6243;51.244;6.774;2023-12-28T08:11:58;115150.97;;;-141.28;46.04
12358;BME280;6243;51.244;6.774;2023-12-28T08:14:24;115150.97;;;-141.28;46.51
12358;BME280;6243;51.244;6.774;2023-12-28T08:16:49;115150.97;;;-141.28;45.58
12358;BME280;6243;51.244;6.774;2023-12-28T08:19:15;115150.97;;;-141.28;46.24
12358;BME280;6243;51.244;6.774;2023-12-28T08:21:40;115150.97;;;-141.28;45.95
12358;BME280;6243;51.244;6.774;2023-12-28T08:24:07;115150.97;;;-141.28;45.79
12358;BME280;6243;51.244;6.774;2023-12-28T08:26:33;115150.97;;;-141.28;46.04
12358;BME280;6243;51.244;6.774;2023-12-28T08:28:58;115150.97;;;-141.28;46.44
12358;BME280;6243;51.244;6.774;2023-12-28T08:31:24;115150.97;;;-141.28;46.04
12358;BME280;6243;51.244;6.774;2023-12-28T08:33:49;115150.97;;;-141.28;45.76
12358;BME280;6243;51.244;6.774;2023-12-28T08:36:15;115150.97;;;-141.28;45.71
12358;BME280;6243;51.244;6.774;2023-12-28T08:38:40;115150.97;;;-141.28;45.62
12358;BME280;6243;51.244;6.774;2023-12-28T08:41:07;115150.97;;;-141.28;45.43
12358;BME280;6243;51.244;6.774;2023-12-28T08:43:42;115150.97;;;-141.28;45.61
12358;BME280;6243;51.244;6.774;2023-12-28T08:46:08;115150.97;;;-141.28;45.41
12358;BME280;6243;51.244;6.774;2023-12-28T08:48:33;115150.97;;;-141.28;45.19
12358;BME280;6243;51.244;6.774;2023-12-28T08:50:59;115150.97;;;-141.28;45.41
12358;BME280;6243;51.244;6.774;2023-12-28T08:53:24;115150.97;;;-141.28;45.60
12358;BME280;6243;51.244;6.774;2023-12-28T08:55:50;115150.97;;;-141.28;45.19
12358;BME280;6243;51.244;6.774;2023-12-28T08:58:17;115150.97;;;-141.28;45.72
12358;BME280;6243;51.244;6.774;2023-12-28T09:00:42;115150.97;;;-141.28;45.81
12358;BME280;6243;51.244;6.774;2023-12-28T09:03:07;115150.97;;;-141.28;45.61
12358;BME280;6243;51.244;6.774;2023-12-28T09:05:34;115150.97;;;-141.28;45.49
12358;BME280;6243;51.244;6.774;2023-12-28T09:07:59;115150.97;;;-141.28;45.54
12358;BME280;6243;51.244;6.774;2023-12-28T09:10:25;115150.97;;;-141.28;45.38
12358;BME280;6243;51.244;6.774;2023-12-28T09:12:50;115150.97;;;-141.28;45.44
12358;BME280;6243;51.244;6.774;2023-12-28T09:15:18;115150.97;;;-141.28;45.31
12358;BME280;6243;51.244;6.774;2023-12-28T09:17:43;115150.97;;;-141.28;45.12
12358;BME280;6243;51.244;6.774;2023-12-28T09:20:09;115150.97;;;-141.28;45.77
12358;BME280;6243;51.244;6.774;2023-12-28T09:22:35;115150.97;;;-141.28;45.66
12358;BME280;6243;51.244;6.774;2023-12-28T09:25:01;115150.97;;;-141.28;46.02
12358;BME280;6243;51.244;6.774;2023-12-28T09:27:26;115150.97;;;-141.28;45.56
12358;BME280;6243;51.244;6.774;2023-12-28T09:29:52;115150.97;;;-141.28;45.59
12358;BME280;6243;51.244;6.774;2023-12-28T09:32:19;115150.97;;;-141.28;45.53
12358;BME280;6243;51.244;6.774;2023-12-28T09:34:44;115150.97;;;-141.28;45.45
12358;BME280;6243;51.244;6.774;2023-12-28T09:37:10;115150.97;;;-141.28;44.70
12358;BME280;6243;51.244;6.774;2023-12-28T09:39:35;115150.97;;;-141.28;44.72
12358;BME280;6243;51.244;6.774;2023-12-28T09:42:06;115150.97;;;-141.28;44.64
12358;BME280;6243;51.244;6.774;2023-12-28T09:44:38;115150.97;;;-141.28;45.58
12358;BME280;6243;51.244;6.774;2023-12-28T09:47:04;115150.97;;;-141.28;45.03
12358;BME280;6243;51.244;6.774;2023-12-28T09:49:31;115150.97;;;-141.28;45.08
12358;BME280;6243;51.244;6.774;2023-12-28T09:51:56;115150.97;;;-141.28;44.66
12358;BME280;6243;51.244;6.774;2023-12-28T09:54:22;115150.97;;;-141.28;44.75
12358;BME280;6243;51.244;6.774;2023-12-28T09:56:47;115150.97;;;-141.28;44.84
12358;BME280;6243;51.244;6.774;2023-12-28T09:59:14;115150.97;;;-141.28;44.83
12358;BME280;6243;51.244;6.774;2023-12-28T10:01:41;115150.97;;;-141.28;44.75
12358;BME280;6243;51.244;6.774;2023-12-28T10:04:06;115150.97;;;-141.28;44.15
12358;BME280;6243;51.244;6.774;2023-12-28T10:06:33;115150.97;;;-141.28;44.88
12358;BME280;6243;51.244;6.774;2023-12-28T10:08:59;115150.97;;;-141.28;45.28
12358;BME280;6243;51.244;6.774;2023-12-28T10:11:24;115150.97;;;-141.28;44.90
12358;BME280;6243;51.244;6.774;2023-12-28T10:13:50;115150.97;;;-141.28;44.59
12358;BME280;6243;51.244;6.774;2023-12-28T10:16:16;115150.97;;;-141.28;44.58
12358;BME280;6243;51.244;6.774;2023-12-28T10:18:42;115150.97;;;-141.28;44.53
12358;BME280;6243;51.244;6.774;2023-12-28T10:21:07;115150.97;;;-141.28;44.67
12358;BME280;6243;51.244;6.774;2023-12-28T10:23:35;115150.97;;;-141.28;44.06
12358;BME280;6243;51.244;6.774;2023-12-28T10:26:00;115150.97;;;-141.28;44.36
12358;BME280;6243;51.244;6.774;2023-12-28T10:28:27;115150.97;;;-141.28;43.77
12358;BME280;6243;51.244;6.774;2023-12-28T10:30:54;115150.97;;;-141.28;44.17
12358;BME280;6243;51.244;6.774;2023-12-28T10:33:20;115150.97;;;-141.28;44.21
12358;BME280;6243;51.244;6.774;2023-12-28T10:35:46;115150.97;;;-141.28;44.35
12358;BME280;6243;51.244;6.774;2023-12-28T10:38:13;115150.97;;;-141.28;44.17
12358;BME280;6243;51.244;6.774;2023-12-28T10:40:42;115150.97;;;-141.28;44.28
12358;BME280;6243;51.244;6.774;2023-12-28T10:43:11;115150.97;;;-141.28;44.10
12358;BME280;6243;51.244;6.774;2023-12-28T10:45:39;115150.97;;;-141.28;44.57
12358;BME280;6243;51.244;6.774;2023-12-28T10:48:06;115150.97;;;-141.28;44.12
12358;BME280;6243;51.244;6.774;2023-12-28T10:50:37;115150.97;;;-141.28;44.45
12358;BME280;6243;51.244;6.774;2023-12-28T10:53:14;115150.97;;;-141.28;44.37
12358;BME280;6243;51.244;6.774;2023-12-28T10:55:50;115150.97;;;-141.28;44.07
12358;BME280;6243;51.244;6.774;2023-12-28T10:58:23;115150.97;;;-141.28;44.35
12358;BME280;6243;51.244;6.774;2023-12-28T11:00:55;115150.97;;;-141.28;43.84
12358;BME280;6243;51.244;6.774;2023-12-28T11:03:27;115150.97;;;-141.28;44.08
12358;BME280;6243;51.244;6.774;2023-12-28T11:05:53;115150.97;;;-141.28;44.00
12358;BME280;6243;51.244;6.774;2023-12-28T11:08:19;115150.97;;;-141.28;43.64
12358;BME280;6243;51.244;6.774;2023-12-28T11:10:48;115150.97;;;-141.28;43.58
12358;BME280;6243;51.244;6.774;2023-12-28T11:13:16;115150.97;;;-141.28;43.94
12358;BME280;6243;51.244;6.774;2023-12-28T11:15:43;115150.97;;;-141.28;43.39
12358;BME280;6243;51.244;6.774;2023-12-28T11:18:08;115150.97;;;-141.28;43.43
12358;BME280;6243;51.244;6.774;2023-12-28T11:20:34;115150.97;;;-141.28;43.75
12358;BME280;6243;51.244;6.774;2023-12-28T11:23:00;115150.97;;;-141.28;43.59
12358;BME280;6243;51.244;6.774;2023-12-28T11:25:30;115150.97;;;-141.28;43.78
12358;BME280;6243;51.244;6.774;2023-12-28T11:27:58;115150.97;;;-141.28;43.43
12358;BME280;6243;51.244;6.774;2023-12-28T11:30:25;115150.97;;;-141.28;43.21
12358;BME280;6243;51.244;6.774;2023-12-28T11:32:56;115150.97;;;-141.28;43.39
12358;BME280;6243;51.244;6.774;2023-12-28T11:35:22;115150.97;;;-141.28;42.72
12358;BME280;6243;51.244;6.774;2023-12-28T11:37:51;115150.97;;;-141.28;42.79
12358;BME280;6243;51.244;6.774;2023-12-28T11:40:19;115150.97;;;-141.28;43.24
12358;BME280;6243;51.244;6.774;2023-12-28T11:42:49;115150.97;;;-141.28;42.70
12358;BME280;6243;51.244;6.774;2023-12-28T11:45:17;115150.97;;;-141.28;42.89
12358;BME280;6243;51.244;6.774;2023-12-28T11:47:43;115150.97;;;-141.28;43.18
12358;BME280;6243;51.244;6.774;2023-12-28T11:50:09;115150.97;;;-141.28;42.97
12358;BME280;6243;51.244;6.774;2023-12-28T11:52:35;115150.97;;;-141.28;42.43
12358;BME280;6243;51.244;6.774;2023-12-28T11:55:00;115150.97;;;-141.28;43.08
12358;BME280;6243;51.244;6.774;2023-12-28T11:57:26;115150.97;;;-141.28;43.08
12358;BME280;6243;51.244;6.774;2023-12-28T11:59:54;115150.97;;;-141.28;42.89
12358;BME280;6243;51.244;6.774;2023-12-28T12:02:22;115150.97;;;-141.28;42.74
12358;BME280;6243;51.244;6.774;2023-12-28T12:04:47;115150.97;;;-141.28;42.31
12358;BME280;6243;51.244;6.774;2023-12-28T12:07:13;115150.97;;;-141.28;42.45
12358;BME280;6243;51.244;6.774;2023-12-28T12:09:38;115150.97;;;-141.28;42.56
12358;BME280;6243;51.244;6.774;2023-12-28T12:12:06;115150.97;;;-141.28;42.99
12358;BME280;6243;51.244;6.774;2023-12-28T12:14:31;115150.97;;;-141.28;42.65
12358;BME280;6243;51.244;6.774;2023-12-28T12:16:58;115150.97;;;-141.28;42.74
12358;BME280;6243;51.244;6.774;2023-12-28T12:19:25;115150.97;;;-141.28;42.89
12358;BME280;6243;51.244;6.774;2023-12-28T12:21:51;115150.97;;;-141.28;42.33
12358;BME280;6243;51.244;6.774;2023-12-28T12:24:17;115150.97;;;-141.28;42.09
12358;BME280;6243;51.244;6.774;2023-12-28T12:26:43;115150.97;;;-141.28;42.18
12358;BME280;6243;51.244;6.774;2023-12-28T12:29:08;115150.97;;;-141.28;42.95
12358;BME280;6243;51.244;6.774;2023-12-28T12:31:34;115150.97;;;-141.28;41.76
12358;BME280;6243;51.244;6.774;2023-12-28T12:33:59;115150.97;;;-141.28;41.75